createdAt,value
2018-07-25T00:00:17.173Z,1.70
2018-07-25T00:02:46.931Z,1.70
2018-07-25T00:05:17.281Z,1.50
2018-07-25T00:07:46.958Z,1.77
2018-07-25T00:10:16.393Z,1.70
2018-07-25T00:12:46.361Z,1.90
2018-07-25T00:15:16.250Z,1.70
2018-07-25T00:17:45.995Z,1.52
2018-07-25T00:20:15.947Z,2.10
2018-07-25T00:22:45.664Z,1.45
2018-07-25T00:25:15.165Z,1.70
2018-07-25T00:27:45.472Z,1.80
2018-07-25T00:30:14.958Z,1.60
2018-07-25T00:32:44.823Z,1.50
2018-07-25T00:35:14.716Z,1.50
2018-07-25T00:37:44.788Z,1.72
2018-07-25T00:40:14.457Z,1.60
2018-07-25T00:42:44.495Z,1.52
2018-07-25T00:45:14.644Z,1.65
2018-07-25T00:47:44.122Z,1.72
2018-07-25T00:50:13.904Z,1.70
2018-07-25T00:52:43.885Z,1.80
2018-07-25T00:55:13.605Z,1.92
2018-07-25T00:57:43.038Z,1.80
2018-07-25T01:00:12.867Z,1.50
2018-07-25T01:02:42.707Z,1.62
2018-07-25T01:05:12.450Z,1.70
2018-07-25T01:07:41.881Z,2.00
2018-07-25T01:10:11.971Z,1.40
2018-07-25T01:12:41.681Z,1.70
2018-07-25T01:15:11.782Z,1.45
2018-07-25T01:17:41.667Z,1.65
2018-07-25T01:20:11.188Z,1.80
2018-07-25T01:22:40.642Z,1.37
2018-07-25T01:25:10.628Z,1.67
2018-07-25T01:27:40.748Z,1.70
2018-07-25T01:30:10.500Z,1.92
2018-07-25T01:32:40.235Z,1.50
2018-07-25T01:35:10.297Z,1.47
2018-07-25T01:37:39.780Z,1.42
2018-07-25T01:40:09.551Z,1.70
2018-07-25T01:42:39.352Z,1.65
2018-07-25T01:45:09.189Z,1.95
2018-07-25T01:47:38.949Z,1.70
2018-07-25T01:50:09.054Z,1.77
2018-07-25T01:52:38.851Z,1.65
2018-07-25T01:55:09.234Z,1.77
2018-07-25T01:57:39.391Z,1.40
2018-07-25T02:00:09.270Z,1.50
2018-07-25T02:02:39.024Z,1.50
2018-07-25T02:05:08.452Z,1.80
2018-07-25T02:07:37.932Z,1.52
2018-07-25T02:10:08.039Z,1.70
2018-07-25T02:12:37.781Z,1.67
2018-07-25T02:15:08.220Z,1.80
2018-07-25T02:17:38.009Z,1.87
2018-07-25T02:20:07.512Z,1.62
2018-07-25T02:22:37.906Z,2.02
2018-07-25T02:25:07.754Z,2.30
2018-07-25T02:27:37.238Z,1.98
2018-07-25T02:30:07.072Z,1.80
2018-07-25T02:32:36.171Z,1.77
2018-07-25T02:35:05.828Z,1.87
2018-07-25T02:37:35.284Z,1.87
2018-07-25T02:40:05.164Z,2.10
2018-07-25T02:42:35.005Z,1.67
2018-07-25T02:45:04.513Z,2.05
2018-07-25T02:47:34.315Z,1.90
2018-07-25T02:50:04.637Z,1.90
2018-07-25T02:52:34.072Z,1.90
2018-07-25T02:55:03.521Z,2.02
2018-07-25T02:57:33.384Z,1.95
2018-07-25T03:00:03.985Z,1.87
2018-07-25T03:02:33.797Z,2.30
2018-07-25T03:05:03.315Z,2.20
2018-07-25T03:07:33.254Z,1.90
2018-07-25T03:10:03.091Z,1.87
2018-07-25T03:12:33.099Z,2.10
2018-07-25T03:15:03.378Z,2.05
2018-07-25T03:17:33.265Z,2.30
2018-07-25T03:20:03.090Z,2.12
2018-07-25T03:22:32.955Z,1.90
2018-07-25T03:25:02.994Z,2.05
2018-07-25T03:27:32.484Z,1.80
2018-07-25T03:30:01.981Z,2.25
2018-07-25T03:32:31.950Z,2.25
2018-07-25T03:35:01.996Z,2.30
2018-07-25T03:37:31.805Z,2.65
2018-07-25T03:40:01.845Z,1.90
2018-07-25T03:42:31.276Z,2.35
2018-07-25T03:45:00.721Z,2.08
2018-07-25T03:47:30.205Z,2.00
2018-07-25T03:49:59.668Z,2.02
2018-07-25T03:52:29.699Z,2.20
2018-07-25T03:54:59.698Z,1.90
2018-07-25T03:57:29.657Z,2.10
2018-07-25T03:59:59.072Z,2.08
2018-07-25T04:02:29.171Z,2.10
2018-07-25T04:04:59.061Z,2.00
2018-07-25T04:07:29.617Z,2.30
2018-07-25T04:09:59.949Z,2.80
2018-07-25T04:12:29.384Z,2.47
2018-07-25T04:14:59.171Z,2.30
2018-07-25T04:17:32.713Z,2.17
2018-07-25T04:20:02.190Z,2.30
2018-07-25T04:22:32.233Z,2.30
2018-07-25T04:25:01.698Z,2.10
2018-07-25T04:27:31.715Z,2.33
2018-07-25T04:30:01.541Z,2.20
2018-07-25T04:32:31.330Z,1.92
2018-07-25T04:35:01.085Z,2.42
2018-07-25T04:37:31.062Z,2.67
2018-07-25T04:40:00.495Z,2.20
2018-07-25T04:42:30.205Z,2.65
2018-07-25T04:44:59.656Z,2.60
2018-07-25T04:47:29.159Z,2.90
2018-07-25T04:49:58.830Z,2.40
2018-07-25T04:52:28.897Z,2.67
2018-07-25T04:54:58.730Z,2.65
2018-07-25T04:57:29.433Z,2.87
2018-07-25T04:59:58.880Z,2.70
2018-07-25T05:02:28.568Z,2.72
2018-07-25T05:04:58.262Z,2.80
2018-07-25T05:07:28.228Z,3.40
2018-07-25T05:09:57.740Z,3.05
2018-07-25T05:12:27.538Z,3.00
2018-07-25T05:14:56.961Z,2.85
2018-07-25T05:17:26.681Z,2.42
2018-07-25T05:19:56.739Z,3.02
2018-07-25T05:22:26.165Z,3.17
2018-07-25T05:24:55.758Z,2.77
2018-07-25T05:27:25.761Z,3.00
2018-07-25T05:29:55.194Z,2.77
2018-07-25T05:32:24.637Z,3.08
2018-07-25T05:34:54.166Z,3.22
2018-07-25T05:37:23.762Z,3.30
2018-07-25T05:39:53.178Z,3.12
2018-07-25T05:42:23.083Z,2.52
2018-07-25T05:44:52.469Z,2.75
2018-07-25T05:47:22.245Z,2.70
2018-07-25T05:49:51.672Z,3.08
2018-07-25T05:52:21.116Z,2.80
2018-07-25T05:54:50.542Z,2.75
2018-07-25T05:57:20.078Z,2.75
2018-07-25T05:59:49.609Z,2.60
2018-07-25T06:02:19.858Z,2.95
2018-07-25T06:04:49.648Z,2.50
2018-07-25T06:07:19.168Z,2.42
2018-07-25T06:09:48.915Z,2.65
2018-07-25T06:12:19.678Z,2.75
2018-07-25T06:14:49.717Z,2.90
2018-07-25T06:17:19.375Z,2.52
2018-07-25T06:19:49.164Z,2.70
2018-07-25T06:22:18.879Z,2.50
2018-07-25T06:24:48.304Z,2.30
2018-07-25T06:27:17.997Z,2.42
2018-07-25T06:29:47.430Z,2.70
2018-07-25T06:32:16.919Z,2.65
2018-07-25T06:34:46.435Z,2.85
2018-07-25T06:37:16.160Z,2.98
2018-07-25T06:39:45.313Z,2.42
2018-07-25T06:42:15.095Z,2.55
2018-07-25T06:44:44.553Z,2.30
2018-07-25T06:47:14.247Z,2.30
2018-07-25T06:49:43.656Z,2.83
2018-07-25T06:52:13.130Z,2.20
2018-07-25T06:54:42.602Z,1.80
2018-07-25T06:57:12.039Z,1.80
2018-07-25T06:59:41.783Z,1.90
2018-07-25T07:02:11.732Z,2.10
2018-07-25T07:04:41.119Z,1.82
2018-07-25T07:07:10.520Z,2.20
2018-07-25T07:09:39.954Z,1.80
2018-07-25T07:12:10.283Z,1.98
2018-07-25T07:14:39.981Z,1.85
2018-07-25T07:17:09.855Z,1.57
2018-07-25T07:19:39.246Z,1.92
2018-07-25T07:22:08.677Z,2.20
2018-07-25T07:24:38.380Z,2.10
2018-07-25T07:27:07.958Z,2.08
2018-07-25T07:29:37.736Z,1.62
2018-07-25T07:32:07.236Z,1.95
2018-07-25T07:34:36.659Z,1.77
2018-07-25T07:37:06.315Z,1.95
2018-07-25T07:39:36.025Z,1.77
2018-07-25T07:42:05.965Z,2.20
2018-07-25T07:44:35.830Z,1.60
2018-07-25T07:47:05.825Z,1.92
2018-07-25T07:49:35.301Z,1.62
2018-07-25T07:52:04.776Z,2.05
2018-07-25T07:54:34.162Z,2.58
2018-07-25T07:57:03.626Z,2.10
2018-07-25T07:59:33.309Z,2.08
2018-07-25T08:02:02.817Z,1.72
2018-07-25T08:04:32.515Z,2.17
2018-07-25T08:07:01.961Z,1.70
2018-07-25T08:09:31.439Z,1.87
2018-07-25T08:12:00.864Z,1.70
2018-07-25T08:14:30.834Z,1.65
2018-07-25T08:17:00.242Z,1.95
2018-07-25T08:19:29.662Z,2.20
2018-07-25T08:21:59.037Z,1.60
2018-07-25T08:24:28.456Z,1.80
2018-07-25T08:26:57.847Z,2.10
2018-07-25T08:29:27.288Z,1.92
2018-07-25T08:31:56.690Z,2.10
2018-07-25T08:34:26.236Z,1.80
2018-07-25T08:36:55.709Z,2.20
2018-07-25T08:39:25.149Z,1.70
2018-07-25T08:41:54.800Z,1.67
2018-07-25T08:44:24.260Z,2.05
2018-07-25T08:46:54.303Z,1.90
2018-07-25T08:49:24.136Z,2.17
2018-07-25T08:51:53.599Z,1.65
2018-07-25T08:54:22.968Z,1.87
2018-07-25T08:56:52.398Z,2.02
2018-07-25T08:59:21.821Z,1.82
2018-07-25T09:01:51.243Z,1.82
2018-07-25T09:04:20.630Z,1.87
2018-07-25T09:06:50.045Z,2.10
2018-07-25T09:09:19.411Z,1.85
2018-07-25T09:11:49.046Z,1.60
2018-07-25T09:14:18.482Z,1.75
2018-07-25T09:16:47.955Z,1.50
2018-07-25T09:19:17.322Z,1.67
2018-07-25T09:21:46.741Z,1.30
2018-07-25T09:24:16.299Z,1.70
2018-07-25T09:26:45.984Z,2.35
2018-07-25T09:29:15.405Z,1.70
2018-07-25T09:31:44.843Z,2.30
2018-07-25T09:34:14.379Z,1.82
2018-07-25T09:36:43.710Z,1.60
2018-07-25T09:39:13.122Z,2.12
2018-07-25T09:41:42.882Z,2.27
2018-07-25T09:44:12.626Z,1.90
2018-07-25T09:46:42.151Z,2.30
2018-07-25T09:49:11.482Z,1.98
2018-07-25T09:51:40.928Z,1.70
2018-07-25T09:54:10.369Z,1.70
2018-07-25T09:56:39.830Z,1.90
2018-07-25T09:59:09.231Z,2.40
2018-07-25T10:01:38.741Z,2.33
2018-07-25T10:04:08.197Z,2.27
2018-07-25T10:06:37.672Z,2.00
2018-07-25T10:09:11.563Z,2.02
2018-07-25T10:11:41.041Z,2.12
2018-07-25T10:14:10.476Z,2.15
2018-07-25T10:16:39.961Z,1.85
2018-07-25T10:19:09.765Z,1.90
2018-07-25T10:21:39.537Z,1.90
2018-07-25T10:24:09.015Z,2.50
2018-07-25T10:26:38.462Z,2.00
2018-07-25T10:29:07.888Z,2.22
2018-07-25T10:31:37.649Z,2.60
2018-07-25T10:34:07.483Z,2.40
2018-07-25T10:36:37.285Z,2.10
2018-07-25T10:39:09.078Z,2.22
2018-07-25T10:41:38.585Z,2.50
2018-07-25T10:44:08.031Z,2.10
2018-07-25T10:46:37.440Z,2.00
2018-07-25T10:49:06.919Z,1.62
2018-07-25T10:51:36.695Z,1.82
2018-07-25T10:54:06.421Z,1.75
2018-07-25T10:56:35.850Z,1.37
2018-07-25T10:59:05.302Z,2.20
2018-07-25T11:01:35.073Z,2.30
2018-07-25T11:04:04.645Z,2.05
2018-07-25T11:06:34.375Z,1.80
2018-07-25T11:09:04.991Z,1.70
2018-07-25T11:11:34.561Z,2.00
2018-07-25T11:14:04.304Z,1.57
2018-07-25T11:16:34.178Z,1.80
2018-07-25T11:19:04.398Z,2.00
2018-07-25T11:21:34.361Z,2.08
2018-07-25T11:24:04.762Z,2.40
2018-07-25T11:26:34.951Z,1.80
2018-07-25T11:29:05.402Z,2.00
2018-07-25T11:31:34.924Z,1.70
2018-07-25T11:34:04.731Z,1.85
2018-07-25T11:36:34.877Z,1.77
2018-07-25T11:39:07.469Z,1.90
2018-07-25T11:41:37.405Z,1.70
2018-07-25T11:44:07.257Z,1.57
2018-07-25T11:46:37.037Z,1.65
2018-07-25T11:49:06.941Z,1.95
2018-07-25T11:51:36.348Z,1.45
2018-07-25T11:54:06.503Z,1.45
2018-07-25T11:56:36.821Z,1.80
2018-07-25T11:59:07.237Z,1.65
2018-07-25T12:01:36.832Z,1.70
2018-07-25T12:04:06.352Z,1.60
2018-07-25T12:06:36.472Z,1.60
2018-07-25T12:09:10.389Z,1.82
2018-07-25T12:11:44.354Z,1.60
2018-07-25T12:14:15.984Z,1.62
2018-07-25T12:16:46.403Z,1.98
2018-07-25T12:19:16.944Z,1.80
2018-07-25T12:21:47.305Z,1.40
2018-07-25T12:24:17.117Z,1.65
2018-07-25T12:26:47.217Z,1.60
2018-07-25T12:29:16.940Z,1.30
2018-07-25T12:31:47.200Z,1.50
2018-07-25T12:34:17.029Z,1.45
2018-07-25T12:36:47.176Z,1.27
2018-07-25T12:39:16.910Z,1.67
2018-07-25T12:41:47.068Z,1.60
2018-07-25T12:44:17.173Z,1.32
2018-07-25T12:46:46.697Z,2.08
2018-07-25T12:49:17.101Z,1.25
2018-07-25T12:51:47.131Z,2.00
2018-07-25T12:54:16.618Z,1.30
2018-07-25T12:56:46.960Z,1.65
2018-07-25T12:59:17.143Z,1.27
2018-07-25T13:01:46.866Z,1.05
2018-07-25T13:04:16.606Z,1.15
2018-07-25T13:06:46.652Z,1.60
2018-07-25T13:09:16.473Z,1.22
2018-07-25T13:11:46.861Z,1.10
2018-07-25T13:14:16.998Z,1.25
2018-07-25T13:16:47.436Z,1.10
2018-07-25T13:19:17.635Z,1.50
2018-07-25T13:21:47.750Z,1.20
2018-07-25T13:24:17.721Z,1.30
2018-07-25T13:26:47.653Z,1.37
2018-07-25T13:29:17.112Z,1.00
2018-07-25T13:31:47.137Z,1.10
2018-07-25T13:34:17.069Z,1.10
2018-07-25T13:36:47.274Z,1.05
2018-07-25T13:39:17.369Z,1.00
2018-07-25T13:41:47.873Z,1.27
2018-07-25T13:44:17.680Z,1.27
2018-07-25T13:46:47.736Z,1.50
2018-07-25T13:49:18.034Z,1.30
2018-07-25T13:51:47.864Z,1.20
2018-07-25T13:54:17.820Z,1.02
2018-07-25T13:56:47.624Z,1.25
2018-07-25T13:59:17.589Z,1.30
2018-07-25T14:01:47.115Z,0.82
2018-07-25T14:04:16.568Z,1.05
2018-07-25T14:06:47.058Z,1.10
2018-07-25T14:09:16.562Z,0.90
2018-07-25T14:11:46.415Z,1.10
2018-07-25T14:14:16.515Z,1.02
2018-07-25T14:16:47.201Z,1.07
2018-07-25T14:19:17.554Z,1.17
2018-07-25T14:21:48.116Z,1.35
2018-07-25T14:24:18.165Z,1.20
2018-07-25T14:26:48.073Z,1.10
2018-07-25T14:29:18.501Z,1.02
2018-07-25T14:31:48.288Z,1.00
2018-07-25T14:34:18.701Z,1.10
2018-07-25T14:36:48.172Z,0.90
2018-07-25T14:39:17.629Z,1.00
2018-07-25T14:41:48.034Z,1.12
2018-07-25T14:44:17.729Z,0.95
2018-07-25T14:46:47.356Z,1.05
2018-07-25T14:49:17.319Z,1.00
2018-07-25T14:51:46.826Z,0.90
2018-07-25T14:54:16.891Z,0.60
2018-07-25T14:56:46.912Z,0.90
2018-07-25T14:59:17.034Z,0.70
2018-07-25T15:01:47.170Z,0.82
2018-07-25T15:04:17.404Z,1.02
2018-07-25T15:06:47.097Z,0.90
2018-07-25T15:09:17.513Z,1.00
2018-07-25T15:11:47.589Z,0.82
2018-07-25T15:14:17.862Z,0.98
2018-07-25T15:16:48.663Z,0.70
2018-07-25T15:19:18.690Z,1.00
2018-07-25T15:21:48.270Z,0.78
2018-07-25T15:24:18.677Z,0.90
2018-07-25T15:26:48.633Z,1.20
2018-07-25T15:29:18.463Z,1.40
2018-07-25T15:34:17.838Z,1.15
2018-07-25T15:36:50.614Z,1.00
2018-07-25T15:39:21.534Z,0.88
2018-07-25T15:41:51.546Z,1.10
2018-07-25T15:44:22.474Z,0.80
2018-07-25T15:46:52.387Z,1.30
2018-07-25T15:49:21.928Z,1.00
2018-07-25T15:51:51.737Z,1.00
2018-07-25T15:54:21.920Z,1.20
2018-07-25T15:56:52.094Z,0.90
2018-07-25T15:59:21.893Z,1.27
2018-07-25T16:01:51.754Z,1.17
2018-07-25T16:04:21.984Z,1.00
2018-07-25T16:06:52.409Z,0.68
2018-07-25T16:09:22.438Z,1.02
2018-07-25T16:11:52.622Z,1.00
2018-07-25T16:14:22.432Z,1.22
2018-07-25T16:16:52.255Z,1.05
2018-07-25T16:19:22.160Z,1.47
2018-07-25T16:21:53.358Z,1.20
2018-07-25T16:24:22.881Z,1.30
2018-07-25T16:26:52.868Z,1.57
2018-07-25T16:29:22.787Z,0.88
2018-07-25T16:31:52.808Z,1.07
2018-07-25T16:34:23.241Z,0.82
2018-07-25T16:36:52.740Z,1.10
2018-07-25T16:39:22.718Z,1.12
2018-07-25T16:41:52.536Z,0.70
2018-07-25T16:44:22.116Z,1.00
2018-07-25T16:46:52.192Z,0.93
2018-07-25T16:49:21.993Z,0.95
2018-07-25T16:51:51.505Z,1.35
2018-07-25T16:54:21.334Z,0.78
2018-07-25T16:56:51.200Z,1.20
2018-07-25T16:59:20.975Z,1.00
2018-07-25T17:01:51.468Z,1.00
2018-07-25T17:04:21.280Z,0.93
2018-07-25T17:06:51.392Z,1.00
2018-07-25T17:09:21.289Z,1.00
2018-07-25T17:11:51.178Z,0.70
2018-07-25T17:14:21.259Z,1.00
2018-07-25T17:16:51.235Z,1.72
2018-07-25T17:19:20.972Z,1.50
2018-07-25T17:21:50.688Z,2.15
2018-07-25T17:24:20.482Z,1.95
2018-07-25T17:26:50.307Z,1.65
2018-07-25T17:29:20.330Z,1.60
2018-07-25T17:31:50.101Z,1.70
2018-07-25T17:34:19.519Z,1.70
2018-07-25T17:36:49.741Z,1.35
2018-07-25T17:39:19.198Z,1.40
2018-07-25T17:41:49.281Z,1.02
2018-07-25T17:44:18.743Z,1.60
2018-07-25T17:46:48.507Z,1.25
2018-07-25T17:49:18.453Z,1.70
2018-07-25T17:51:47.956Z,1.52
2018-07-25T17:54:17.486Z,1.40
2018-07-25T17:56:47.839Z,1.25
2018-07-25T17:59:18.178Z,1.40
2018-07-25T18:01:47.789Z,1.15
2018-07-25T18:04:17.916Z,1.27
2018-07-25T18:06:48.035Z,1.40
2018-07-25T18:09:18.005Z,1.35
2018-07-25T18:11:48.853Z,1.32
2018-07-25T18:14:18.900Z,1.60
2018-07-25T18:16:49.071Z,1.60
2018-07-25T18:19:19.166Z,1.30
2018-07-25T18:21:49.305Z,1.47
2018-07-25T18:24:18.853Z,1.40
2018-07-25T18:26:48.888Z,1.50
2018-07-25T18:29:19.421Z,1.60
2018-07-25T18:31:49.100Z,1.25
2018-07-25T18:34:19.180Z,1.20
2018-07-25T18:36:48.718Z,1.05
2018-07-25T18:39:18.863Z,1.17
2018-07-25T18:41:48.625Z,1.37
2018-07-25T18:44:18.839Z,1.17
2018-07-25T18:46:48.344Z,1.37
2018-07-25T18:49:18.392Z,1.30
2018-07-25T18:51:48.260Z,1.07
2018-07-25T18:54:17.799Z,1.15
2018-07-25T18:56:47.301Z,1.27
2018-07-25T18:59:17.391Z,1.35
2018-07-25T19:01:47.238Z,1.30
2018-07-25T19:04:17.409Z,1.10
2018-07-25T19:06:47.468Z,1.22
2018-07-25T19:09:17.744Z,0.95
2018-07-25T19:11:48.187Z,0.98
2018-07-25T19:14:23.443Z,1.20
2018-07-25T19:16:53.453Z,1.20
2018-07-25T19:19:23.523Z,1.40
2018-07-25T19:21:53.606Z,1.25
2018-07-25T19:24:23.199Z,1.35
2018-07-25T19:26:52.975Z,1.40
2018-07-25T19:29:23.047Z,1.12
2018-07-25T19:31:52.578Z,1.30
2018-07-25T19:34:22.660Z,1.22
2018-07-25T19:36:52.746Z,1.37
2018-07-25T19:39:22.544Z,1.20
2018-07-25T19:41:53.344Z,1.57
2018-07-25T19:44:23.142Z,1.25
2018-07-25T19:46:52.681Z,1.30
2018-07-25T19:49:22.488Z,1.00
2018-07-25T19:51:52.189Z,1.30
2018-07-25T19:54:22.449Z,1.20
2018-07-25T19:56:53.232Z,1.62
2018-07-25T19:59:23.453Z,1.10
2018-07-25T20:01:53.512Z,1.17
2018-07-25T20:04:23.897Z,1.25
2018-07-25T20:06:54.063Z,0.80
2018-07-25T20:09:23.560Z,1.42
2018-07-25T20:11:53.126Z,1.25
2018-07-25T20:14:28.216Z,1.25
2018-07-25T20:16:58.003Z,1.27
2018-07-25T20:19:27.931Z,1.25
2018-07-25T20:21:58.086Z,1.30
2018-07-25T20:24:27.557Z,1.50
2018-07-25T20:26:57.480Z,1.90
2018-07-25T20:29:27.175Z,1.80
2018-07-25T20:31:57.302Z,2.50
2018-07-25T20:34:27.085Z,3.37
2018-07-25T20:36:57.262Z,4.20
2018-07-25T20:39:26.790Z,4.10
2018-07-25T20:41:56.685Z,3.55
2018-07-25T20:44:27.029Z,2.87
2018-07-25T20:46:57.309Z,3.42
2018-07-25T20:49:27.024Z,3.55
2018-07-25T20:51:56.874Z,3.72
2018-07-25T20:54:26.586Z,11.88
2018-07-25T20:56:56.184Z,19.48
2018-07-25T20:59:26.839Z,21.60
2018-07-25T21:01:56.917Z,16.17
2018-07-25T21:04:27.027Z,13.53
2018-07-25T21:06:56.765Z,12.23
2018-07-25T21:09:27.390Z,11.83
2018-07-25T21:11:57.867Z,9.80
2018-07-25T21:14:27.886Z,6.40
2018-07-25T21:16:57.665Z,5.85
2018-07-25T21:19:27.672Z,4.40
2018-07-25T21:21:58.465Z,4.78
2018-07-25T21:24:28.548Z,5.22
2018-07-25T21:26:58.633Z,5.65
2018-07-25T21:29:28.879Z,4.47
2018-07-25T21:31:58.804Z,3.90
2018-07-25T21:34:28.853Z,3.22
2018-07-25T21:36:58.548Z,2.67
2018-07-25T21:39:28.268Z,2.65
2018-07-25T21:41:57.699Z,2.33
2018-07-25T21:44:27.196Z,2.00
2018-07-25T21:46:56.643Z,1.47
2018-07-25T21:49:26.787Z,1.90
2018-07-25T21:51:56.570Z,2.00
2018-07-25T21:54:26.941Z,2.15
2018-07-25T21:56:57.032Z,1.98
2018-07-25T21:59:26.834Z,2.50
2018-07-25T22:01:57.116Z,1.92
2018-07-25T22:04:27.325Z,2.25
2018-07-25T22:06:57.773Z,2.22
2018-07-25T22:09:28.568Z,2.17
2018-07-25T22:11:59.147Z,2.15
2018-07-25T22:14:29.145Z,2.30
2018-07-25T22:16:59.545Z,1.80
2018-07-25T22:19:29.321Z,1.98
2018-07-25T22:21:59.112Z,1.65
2018-07-25T22:24:29.187Z,1.85
2018-07-25T22:26:59.056Z,1.70
2018-07-25T22:29:28.710Z,2.12
2018-07-25T22:31:58.688Z,1.95
2018-07-25T22:34:28.625Z,1.87
2018-07-25T22:36:58.422Z,1.80
2018-07-25T22:39:28.373Z,1.70
2018-07-25T22:41:58.568Z,1.40
2018-07-25T22:44:28.611Z,1.30
2018-07-25T22:46:58.510Z,1.90
2018-07-25T22:49:28.215Z,1.50
2018-07-25T22:51:58.010Z,1.65
2018-07-25T22:54:27.871Z,1.62
2018-07-25T22:56:57.681Z,1.87
2018-07-25T22:59:27.787Z,1.70
2018-07-25T23:01:57.966Z,1.30
2018-07-25T23:04:28.065Z,1.70
2018-07-25T23:06:57.766Z,1.77
2018-07-25T23:09:28.101Z,1.98
2018-07-25T23:11:57.860Z,1.60
2018-07-25T23:14:27.571Z,1.80
2018-07-25T23:16:57.022Z,1.50
2018-07-25T23:19:27.061Z,1.55
2018-07-25T23:21:56.839Z,1.77
2018-07-25T23:24:26.817Z,2.05
2018-07-25T23:26:56.850Z,2.10
2018-07-25T23:29:26.503Z,1.60
2018-07-25T23:31:56.310Z,1.85
2018-07-25T23:34:26.093Z,2.02
2018-07-25T23:36:56.174Z,2.08
2018-07-25T23:39:26.387Z,1.72
2018-07-25T23:41:56.330Z,2.15
2018-07-25T23:44:26.045Z,1.65
2018-07-25T23:46:56.609Z,1.67
2018-07-25T23:49:25.787Z,2.00
2018-07-25T23:51:55.825Z,1.80
2018-07-25T23:54:25.499Z,1.80
2018-07-25T23:56:55.594Z,1.92
2018-07-25T23:59:25.629Z,1.90
